El Paso, TX (88565)

10:33 PM MDT on September 01, 2014 (GMT -0600)
Shock | Change Station
CLOSE
Current Station
Personal Weather Station
Location: El Paso, TX
Elevation: 3924 ft
Nearby Weather Stations

Elev 3924 ft 31.76 °N, 106.33 °W | Updated 8 minutes ago

Clear
Clear
81.1 °F
Feels Like 79 °F
N
0.0
Wind Variable Wind from SW

Today
High -- | Low -- °F
--% Chance of Precip.
Yesterday
High -- | Low -- °F
Precip. -- in
6:40 AM 7:29 PM
Waxing Crescent, 47% visible
Pressure 29.72 in
Visibility 10.0 miles
Clouds Clear
Heat Index 79 °F
Dew Point 41 °F
Humidity 24%
Rainfall 0.00 in
Snow Depth Not available.
UV 0 out of 12
Pollen 10.10 out of 12
Air Quality Not available.
Flu Activity Not available.
METAR KELP 020351Z 25005KT 10SM CLR 31/02 A2997 RMK AO2 SLP064 T03110017

More Conditions Fewer Conditions

Pressure 29.72 in
Visibility 10.0 miles
Clouds Clear
Heat Index 79 °F
Dew Point 41 °F
Humidity 24%
Rainfall 0.00 in
Snow Depth Not available.
UV 0 out of 12
Pollen 10.10 out of 12
Air Quality Not available.
Flu Activity Not available.
METAR KELP 020351Z 25005KT 10SM CLR 31/02 A2997 RMK AO2 SLP064 T03110017

More Conditions Fewer Conditions

10-Day Weather Forecast

Almanac

Astronomy

Sep. 01, 2014 Rise Set
Actual Time 6:40 AM MDT 7:29 PM MDT
Civil Twilight 6:16 AM MDT 7:53 PM MDT
Nautical Twilight 5:46 AM MDT 8:23 PM MDT
Astronomical Twilight 5:16 AM MDT 8:53 PM MDT
Moon 1:04 PM MDT (9/1) 11:57 PM MDT (9/1)
Length of Visible Light 13h 37m
Length of Day
12h 48m
Tomorrow will be 1m 52s shorter.
Waxing Crescent, 47% of the Moon is Illuminated
Sep 2
Waxing Crescent
Sep 2
First Quarter
Sep 8
Full
Sep 15
Last Quarter
Sep 24
New

Today's Extremes

State Highs State Lows

Community

WunderPhotos

Upload Photos

1,749,566 photos uploaded!

WunderBlogs® & News

Nearby

Snow Depth

Station Depth Elevation
No new snow has been reported.

Earthquake Activity

City Distance Mag. Time & Date
No recent earthquake activity has been reported nearby.
Minimum magnitude displayed is 2.5.

Coastal Water Temperatures

Place Temperature
No Stations Reporting

Nearby Weather Stations